Time;durP1;ratioP1;P1;durP2;ratioP2;P2;SDS_P1;SDS_P2;PMS_P1;PMS_P2;Temp;Humidity;BMP_temperature;BMP_pressure;BME280_temperature;BME280_humidity;BME280_pressure;Samples;Min_cycle;Max_cycle;Signal;HPM_P1;HPM_P2
2021/03/25 00:01:14;;;;;;;34.05;20.97;;;;;;;2.20;80.24;97040.77;1724708;82;21357;-82
2021/03/25 00:03:46;;;;;;;36.05;22.25;;;;;;;2.19;80.29;97034.01;1679074;82;21302;-83
2021/03/25 00:06:12;;;;;;;39.33;21.90;;;;;;;2.15;80.31;97035.98;1723678;82;21379;-82
2021/03/25 00:08:38;;;;;;;35.35;18.85;;;;;;;2.13;80.33;97033.19;1717803;82;21093;-82
2021/03/25 00:11:04;;;;;;;33.33;19.35;;;;;;;2.13;80.29;97031.44;1704689;82;21541;-82
2021/03/25 00:13:31;;;;;;;32.60;19.67;;;;;;;2.15;80.23;97030.05;1704012;82;21148;-82
2021/03/25 00:15:56;;;;;;;33.53;20.55;;;;;;;2.16;80.19;97035.05;1715614;82;21136;-82
2021/03/25 00:18:23;;;;;;;32.70;19.95;;;;;;;2.15;80.20;97035.17;1719598;82;21113;-82
2021/03/25 00:20:49;;;;;;;31.07;19.15;;;;;;;2.13;80.26;97035.76;1724228;82;21108;-82
2021/03/25 00:23:15;;;;;;;31.97;19.05;;;;;;;2.10;80.31;97032.46;1704706;82;21520;-82
2021/03/25 00:25:41;;;;;;;32.63;19.05;;;;;;;2.08;80.36;97029.66;1711498;82;21117;-81
2021/03/25 00:28:10;;;;;;;27.10;17.40;;;;;;;2.05;80.39;97026.87;1722662;82;21171;-81
2021/03/25 00:30:36;;;;;;;28.12;18.60;;;;;;;2.04;80.39;97027.80;1723474;82;21332;-81
2021/03/25 00:33:05;;;;;;;27.73;17.00;;;;;;;2.06;80.39;97023.84;1724548;82;21126;-81
2021/03/25 00:35:31;;;;;;;23.18;15.05;;;;;;;2.07;80.31;97021.63;1733452;82;22282;-81
2021/03/25 00:37:57;;;;;;;29.23;15.93;;;;;;;2.07;80.28;97021.63;1712593;82;21155;-81
2021/03/25 00:40:24;;;;;;;25.57;15.68;;;;;;;2.06;80.31;97022.09;1724718;82;21154;-82
2021/03/25 00:42:50;;;;;;;27.22;16.52;;;;;;;2.04;80.35;97018.83;1735152;82;21130;-82
2021/03/25 00:45:30;;;;;;;22.95;15.23;;;;;;;2.02;80.39;97017.31;1727555;82;21138;-82
2021/03/25 00:47:56;;;;;;;26.87;15.50;;;;;;;2.00;80.41;97014.86;1702664;82;21124;-81
2021/03/25 00:50:31;;;;;;;21.75;14.25;;;;;;;1.99;80.39;97014.98;1729781;82;21306;-81
2021/03/25 00:52:57;;;;;;;22.60;15.00;;;;;;;2.01;80.36;97013.94;1712868;82;21274;-81
2021/03/25 00:55:23;;;;;;;22.82;16.42;;;;;;;2.04;80.27;97007.76;1707586;82;21149;-82
2021/03/25 00:57:49;;;;;;;23.47;15.50;;;;;;;2.06;80.26;97004.14;1697954;82;21284;-82
2021/03/25 01:00:28;;;;;;;24.45;14.68;;;;;;;2.06;80.24;96999.02;1706214;82;21135;-81
2021/03/25 01:02:54;;;;;;;24.12;14.80;;;;;;;2.06;80.25;96996.92;1721992;82;21144;-82
2021/03/25 01:05:22;;;;;;;23.62;14.10;;;;;;;2.05;80.27;96991.45;1724060;82;21196;-82
2021/03/25 01:08:31;;;;;;;24.47;14.87;;;;;;;2.03;80.26;96993.31;1711314;82;21607;-82
2021/03/25 01:11:08;;;;;;;22.27;14.78;;;;;;;2.00;80.27;96991.80;1719947;82;21144;-81
2021/03/25 01:13:44;;;;;;;26.82;15.32;;;;;;;2.02;80.23;96987.83;1712452;82;21324;-81
2021/03/25 01:16:19;;;;;;;22.55;14.53;;;;;;;2.04;80.16;96982.94;1718664;82;21123;-81
2021/03/25 01:18:45;;;;;;;26.90;16.75;;;;;;;2.06;80.19;96981.54;1720927;82;21114;-84
2021/03/25 01:21:11;;;;;;;28.20;17.02;;;;;;;2.06;80.24;96975.13;1718170;82;21332;-83
2021/03/25 01:23:37;;;;;;;28.27;18.12;;;;;;;2.04;80.28;96977.81;1718214;82;21157;-84
2021/03/25 01:26:03;;;;;;;26.33;17.02;;;;;;;2.03;80.38;96972.34;1717872;82;21131;-84
2021/03/25 01:28:29;;;;;;;25.32;16.23;;;;;;;2.04;80.39;96973.97;1718639;82;21265;-83
2021/03/25 01:30:55;;;;;;;28.62;16.30;;;;;;;2.04;80.31;96970.13;1719058;82;21440;-84
2021/03/25 01:33:21;;;;;;;26.90;16.17;;;;;;;2.07;80.26;96969.08;1715838;82;21175;-84
2021/03/25 01:35:48;;;;;;;24.55;16.32;;;;;;;2.10;80.19;96972.69;1718279;82;21190;-84
2021/03/25 01:38:16;;;;;;;22.13;14.78;;;;;;;2.13;80.24;96972.48;1717309;82;21719;-84
2021/03/25 01:40:46;;;;;;;21.77;14.28;;;;;;;2.14;80.19;96968.98;1719560;82;21358;-84
2021/03/25 01:43:32;;;;;;;23.57;13.75;;;;;;;2.14;80.26;96968.17;1720830;82;21133;-84
2021/03/25 01:46:20;;;;;;;22.35;14.40;;;;;;;2.12;80.30;96964.44;1669199;82;21309;-84
2021/03/25 01:48:50;;;;;;;22.73;14.13;;;;;;;2.11;80.30;96966.63;1720300;82;21141;-83
2021/03/25 01:51:40;;;;;;;21.77;14.43;;;;;;;2.12;80.24;96958.03;1715986;82;21144;-84
2021/03/25 01:54:46;;;;;;;23.47;14.15;;;;;;;2.14;80.23;96962.58;1715112;82;21278;-81
2021/03/25 01:57:56;;;;;;;24.02;12.58;;;;;;;2.16;80.12;96955.58;1709060;82;21125;-81
2021/03/25 02:00:36;;;;;;;25.65;14.80;;;;;;;2.17;80.14;96945.67;1717303;82;21148;-81
2021/03/25 02:03:20;;;;;;;21.23;14.83;;;;;;;2.17;80.21;96941.02;1716051;82;21924;-81
2021/03/25 02:06:09;;;;;;;27.07;14.87;;;;;;;2.15;80.23;96939.84;1711473;82;21116;-81
2021/03/25 02:08:52;;;;;;;27.67;16.77;;;;;;;2.14;80.30;96941.25;1712851;82;21094;-81
2021/03/25 02:11:45;;;;;;;24.50;15.30;;;;;;;2.17;80.05;96944.86;1716195;82;21386;-81
2021/03/25 02:14:45;;;;;;;;;;;;;;;2.21;80.10;96942.41;1719923;82;21388;-81
2021/03/25 02:17:22;;;;;;;27.32;16.42;;;;;;;2.24;79.98;96934.47;1715641;82;20161;-81
2021/03/25 02:20:15;;;;;;;26.27;16.52;;;;;;;2.25;80.08;96936.10;1721742;82;21154;-82
2021/03/25 02:22:52;;;;;;;24.50;16.42;;;;;;;2.23;80.02;96940.07;1713861;82;21493;-81
2021/03/25 02:25:26;;;;;;;24.65;16.60;;;;;;;2.22;80.13;96929.93;1701504;82;21161;-81
2021/03/25 02:27:57;;;;;;;27.62;17.82;;;;;;;2.22;80.19;96929.93;1719329;82;21340;-84
2021/03/25 02:30:49;;;;;;;24.98;16.85;;;;;;;2.25;80.07;96929.69;1714482;82;21198;-84
2021/03/25 02:33:19;;;;;;;26.00;17.82;;;;;;;2.29;79.94;96931.12;1715550;82;21153;-82
2021/03/25 02:35:51;;;;;;;26.82;16.85;;;;;;;2.32;79.99;96932.16;1713972;82;21105;-82
2021/03/25 02:38:22;;;;;;;27.05;18.65;;;;;;;2.34;79.96;96931.57;1711222;82;21163;-81
2021/03/25 02:41:01;;;;;;;30.00;18.27;;;;;;;2.34;80.10;96931.10;1713226;82;21278;-81
2021/03/25 02:43:50;;;;;;;30.70;17.82;;;;;;;2.32;80.11;96934.25;1713276;82;21152;-81
2021/03/25 02:46:32;;;;;;;32.98;20.08;;;;;;;2.32;80.08;96930.41;1720050;82;21171;-81
2021/03/25 02:49:02;;;;;;;28.17;17.65;;;;;;;2.35;79.89;96929.36;1716088;82;21158;-81
2021/03/25 02:51:37;;;;;;;28.38;18.67;;;;;;;2.40;79.96;96930.63;1718499;82;21459;-81
2021/03/25 02:54:04;;;;;;;32.50;20.08;;;;;;;2.40;79.72;96927.24;1721230;82;21160;-84
2021/03/25 02:56:44;;;;;;;33.67;19.15;;;;;;;2.39;79.92;96929.45;1715445;82;21147;-84
2021/03/25 02:59:18;;;;;;;29.90;18.50;;;;;;;2.38;79.99;96927.83;1722348;82;21165;-84
2021/03/25 03:01:48;;;;;;;32.58;20.30;;;;;;;2.36;79.82;96930.52;1719951;82;21547;-83
2021/03/25 03:04:23;;;;;;;35.68;21.30;;;;;;;2.35;79.94;96930.64;1719675;82;21221;-83
2021/03/25 03:06:53;;;;;;;34.40;20.40;;;;;;;2.39;79.82;96930.74;1702845;82;21359;-83
2021/03/25 03:09:26;;;;;;;34.48;22.45;;;;;;;2.45;79.56;96928.19;1720615;82;21160;-82
2021/03/25 03:11:55;;;;;;;35.95;22.62;;;;;;;2.50;79.39;96929.45;1714944;82;21382;-82
2021/03/25 03:14:32;;;;;;;37.23;23.07;;;;;;;2.55;79.34;96926.53;1719224;82;21149;-83
2021/03/25 03:17:03;;;;;;;34.13;22.05;;;;;;;2.61;79.39;96937.16;1715220;82;21152;-82
2021/03/25 03:19:36;;;;;;;36.88;25.08;;;;;;;2.62;79.25;96940.06;1720001;82;21160;-83
2021/03/25 03:22:05;;;;;;;35.92;21.60;;;;;;;2.58;78.99;96937.36;1694325;83;21140;-83
2021/03/25 03:24:31;;;;;;;41.63;24.75;;;;;;;2.57;79.28;96940.05;1720023;82;21547;-82
2021/03/25 03:27:03;;;;;;;40.40;25.17;;;;;;;2.55;79.29;96945.77;1718329;82;21198;-82
2021/03/25 03:29:29;;;;;;;43.98;26.60;;;;;;;2.54;79.17;96941.11;1717685;82;21156;-83
2021/03/25 03:32:25;;;;;;;43.65;27.10;;;;;;;2.55;79.06;96932.95;1715694;82;21184;-82
2021/03/25 03:34:58;;;;;;;41.15;25.60;;;;;;;2.57;79.01;96937.02;1719748;82;21173;-83
2021/03/25 03:37:37;;;;;;;40.73;26.75;;;;;;;2.59;79.05;96944.13;1714452;82;21094;-82
2021/03/25 03:40:09;;;;;;;42.55;26.90;;;;;;;2.57;79.08;96939.58;1709190;82;21189;-82
2021/03/25 03:42:35;;;;;;;41.58;26.10;;;;;;;2.55;78.99;96938.08;1719278;82;21179;-83
2021/03/25 03:45:01;;;;;;;45.78;28.92;;;;;;;2.51;79.08;96936.69;1686479;82;21451;-82
2021/03/25 03:47:28;;;;;;;49.00;27.82;;;;;;;2.52;78.96;96937.03;1705729;82;21290;-82
2021/03/25 03:50:17;;;;;;;47.55;27.87;;;;;;;2.52;78.76;96937.03;1715021;82;21325;-82
2021/03/25 03:52:42;;;;;;;44.23;27.62;;;;;;;2.53;78.75;96942.52;1715337;82;22092;-83
2021/03/25 03:55:11;;;;;;;42.17;26.48;;;;;;;2.54;78.81;96935.16;1717580;82;21151;-83
2021/03/25 03:58:09;;;;;;;45.12;29.18;;;;;;;2.51;78.70;96934.12;1710817;82;21368;-83
2021/03/25 04:00:42;;;;;;;47.73;29.70;;;;;;;2.48;78.76;96930.52;1718837;82;21125;-82
2021/03/25 04:03:32;;;;;;;48.60;28.98;;;;;;;2.44;78.83;96932.95;1720767;82;21286;-82
2021/03/25 04:06:06;;;;;;;47.35;29.15;;;;;;;2.44;78.84;96940.64;1716847;82;21165;-82
2021/03/25 04:09:09;;;;;;;42.00;26.85;;;;;;;2.44;78.76;96939.36;1710613;82;21144;-82
2021/03/25 04:11:49;;;;;;;41.68;27.27;;;;;;;2.46;78.77;96935.77;1731418;81;21098;-83
2021/03/25 04:14:38;;;;;;;42.67;26.00;;;;;;;2.50;78.76;96937.63;1692505;82;21144;-82
2021/03/25 04:17:06;;;;;;;46.08;26.97;;;;;;;2.51;78.71;96936.69;1697752;83;22053;-82
2021/03/25 04:19:37;;;;;;;44.73;26.60;;;;;;;2.52;78.69;96940.88;1708581;82;21152;-83
2021/03/25 04:22:26;;;;;;;35.90;21.70;;;;;;;2.49;78.67;96937.28;1707087;81;21149;-83
2021/03/25 04:25:19;;;;;;;47.40;26.85;;;;;;;2.48;78.71;96936.93;1738158;81;21280;-82
2021/03/25 04:28:14;;;;;;;43.55;26.40;;;;;;;2.44;78.69;96938.92;1737957;81;21118;-82
2021/03/25 04:30:46;;;;;;;42.27;26.65;;;;;;;2.42;78.70;96938.20;1725757;81;21112;-82
2021/03/25 04:33:18;;;;;;;42.70;27.40;;;;;;;2.41;78.58;96939.95;1706458;82;21171;-82
2021/03/25 04:35:44;;;;;;;44.10;29.17;;;;;;;2.43;78.47;96939.01;1739273;81;21107;-82
2021/03/25 04:38:16;;;;;;;43.10;27.60;;;;;;;2.44;78.52;96938.92;1733246;81;21814;-82
2021/03/25 04:40:43;;;;;;;48.70;29.12;;;;;;;2.46;78.63;96938.80;1709336;82;21191;-82
2021/03/25 04:43:10;;;;;;;44.58;27.70;;;;;;;2.45;78.62;96941.02;1713123;82;21088;-82
2021/03/25 04:46:19;;;;;;;40.73;25.95;;;;;;;2.41;78.52;96939.13;1721016;82;21651;-82
2021/03/25 04:48:46;;;;;;;49.83;29.65;;;;;;;2.38;78.47;96948.34;1718832;82;21349;-82
2021/03/25 04:51:19;;;;;;;42.75;27.32;;;;;;;2.37;78.58;96949.28;1720877;82;21136;-82
2021/03/25 04:53:46;;;;;;;41.60;28.02;;;;;;;2.39;78.53;96948.70;1721370;82;21361;-82
2021/03/25 04:56:16;;;;;;;43.17;27.98;;;;;;;2.43;78.56;96947.52;1687318;83;21167;-82
2021/03/25 04:58:52;;;;;;;43.87;27.20;;;;;;;2.46;78.51;96944.75;1711407;82;21448;-82
2021/03/25 05:01:25;;;;;;;44.83;27.13;;;;;;;2.46;78.50;96943.93;1720465;82;21141;-82
2021/03/25 05:04:05;;;;;;;40.88;26.68;;;;;;;2.44;78.50;96952.18;1715808;82;21141;-82
2021/03/25 05:06:53;;;;;;;44.45;28.60;;;;;;;2.43;78.58;96953.12;1710874;82;21435;-82
2021/03/25 05:09:21;;;;;;;44.50;28.52;;;;;;;2.41;78.71;96950.20;1711566;82;21213;-82
2021/03/25 05:11:48;;;;;;;46.90;29.67;;;;;;;2.45;78.72;96952.09;1715037;82;21161;-82
2021/03/25 05:14:19;;;;;;;41.10;26.77;;;;;;;2.48;78.53;96951.85;1722888;82;21615;-82
2021/03/25 05:17:05;;;;;;;38.78;24.75;;;;;;;2.50;78.44;96955.58;1718847;82;21137;-82
2021/03/25 05:19:46;;;;;;;41.85;26.07;;;;;;;2.51;78.49;96954.64;1714802;81;21174;-81
2021/03/25 05:22:41;;;;;;;42.38;26.82;;;;;;;2.51;78.60;96956.74;1708575;82;21207;-81
2021/03/25 05:25:25;;;;;;;42.35;25.12;;;;;;;2.49;78.58;96956.05;1735349;81;21155;-81
2021/03/25 05:27:59;;;;;;;45.48;27.52;;;;;;;2.46;78.56;96953.72;1740711;81;21271;-81
2021/03/25 05:30:29;;;;;;;42.43;26.17;;;;;;;2.43;78.67;96952.65;1736795;81;21141;-81
2021/03/25 05:33:01;;;;;;;42.00;25.92;;;;;;;2.46;78.70;96951.63;1739967;81;21144;-81
2021/03/25 05:35:32;;;;;;;41.98;26.85;;;;;;;2.50;78.71;96950.45;1725387;81;21161;-81
2021/03/25 05:37:58;;;;;;;41.55;28.23;;;;;;;2.54;78.66;96952.66;1709575;82;21169;-81
2021/03/25 05:40:34;;;;;;;44.60;27.10;;;;;;;2.58;78.52;96950.66;1707512;82;21204;-82
2021/03/25 05:43:22;;;;;;;40.55;27.00;;;;;;;2.62;78.58;96945.66;1702372;82;21143;-82
2021/03/25 05:46:22;;;;;;;40.23;27.22;;;;;;;2.66;78.62;96944.48;1729108;81;21176;-82
2021/03/25 05:49:28;;;;;;;42.88;25.92;;;;;;;2.71;78.50;96948.78;1712499;82;21160;-82
2021/03/25 05:52:16;;;;;;;46.23;28.83;;;;;;;2.71;78.56;96947.03;1687907;82;21149;-82
2021/03/25 05:55:32;;;;;;;42.95;27.40;;;;;;;2.72;78.76;96951.70;1716779;82;21118;-81
2021/03/25 05:58:26;;;;;;;42.98;28.27;;;;;;;2.75;78.85;96957.05;1653186;82;21153;-81
2021/03/25 06:01:19;;;;;;;38.35;27.55;;;;;;;2.81;78.96;96952.75;1715267;82;21160;-81
2021/03/25 06:04:11;;;;;;;;;;;;;;;2.87;78.87;96954.36;1719259;82;21402;-82
2021/03/25 06:07:17;;;;;;;40.23;26.15;;;;;;;2.92;78.75;96953.98;1715380;82;20285;-82
2021/03/25 06:10:17;;;;;;;37.50;25.62;;;;;;;2.96;78.67;96961.81;1688196;81;21185;-82
2021/03/25 06:13:16;;;;;;;39.38;25.57;;;;;;;3.00;78.60;96955.50;1702731;82;21152;-83
2021/03/25 06:15:59;;;;;;;40.40;27.98;;;;;;;3.06;78.66;96958.04;1704235;82;21440;-81
2021/03/25 06:19:18;;;;;;;38.13;24.75;;;;;;;3.15;78.61;96966.31;1709120;82;21418;-81
2021/03/25 06:22:04;;;;;;;40.12;25.62;;;;;;;3.21;78.60;96966.63;1624050;86;21194;-81
2021/03/25 06:25:07;;;;;;;38.33;24.70;;;;;;;3.30;78.56;96971.52;1710407;82;21114;-81
2021/03/25 06:27:50;;;;;;;43.58;28.38;;;;;;;3.39;78.42;96975.91;1737354;81;21246;-82
2021/03/25 06:30:27;;;;;;;40.67;25.00;;;;;;;3.49;78.37;96971.67;1709694;82;21105;-82
2021/03/25 06:33:04;;;;;;;41.02;24.60;;;;;;;3.59;78.31;96971.77;1692017;82;21271;-82
2021/03/25 06:35:37;;;;;;;40.55;27.25;;;;;;;3.65;78.31;96972.54;1707177;82;21148;-82
2021/03/25 06:38:23;;;;;;;44.85;27.73;;;;;;;3.70;78.35;96962.69;1725632;82;21408;-82
2021/03/25 06:41:06;;;;;;;41.53;27.20;;;;;;;3.78;78.75;96969.80;1716582;83;21161;-82
2021/03/25 06:43:37;;;;;;;39.08;25.92;;;;;;;3.88;78.81;96975.80;1723456;82;21138;-82
2021/03/25 06:46:25;;;;;;;36.70;25.05;;;;;;;3.98;78.84;96968.97;1728996;81;21110;-82
2021/03/25 06:48:56;;;;;;;38.35;25.88;;;;;;;4.07;78.49;96964.84;1738999;81;21113;-82
2021/03/25 06:51:34;;;;;;;38.65;24.47;;;;;;;4.27;78.63;96954.17;1814680;77;22922;-81
2021/03/25 06:54:12;;;;;;;36.25;24.00;;;;;;;4.32;78.46;96961.02;1786283;78;21249;-81
2021/03/25 06:56:45;;;;;;;36.95;24.20;;;;;;;4.40;78.55;96963.31;1793226;78;21062;-81
2021/03/25 06:59:34;;;;;;;34.58;24.23;;;;;;;4.50;78.49;96966.72;1793045;80;21094;-82
2021/03/25 07:02:20;;;;;;;68.40;44.30;;;;;;;4.56;78.35;96964.59;1805305;79;21225;-82
2021/03/25 07:04:49;;;;;;;42.65;27.52;;;;;;;4.61;78.12;96964.53;1761146;80;21113;-82
2021/03/25 07:07:31;;;;;;;37.65;26.30;;;;;;;4.69;77.79;96965.16;1762403;80;21118;-82
2021/03/25 07:09:58;;;;;;;;;;;;;;;4.79;77.81;96964.25;1778279;78;21813;-81
2021/03/25 07:12:34;;;;;;;47.38;33.63;;;;;;;4.90;77.04;96971.53;1768187;78;20369;-81
2021/03/25 07:15:01;;;;;;;43.83;27.77;;;;;;;4.92;75.68;96973.50;1777679;78;21126;-81
2021/03/25 07:17:42;;;;;;;43.68;28.87;;;;;;;4.95;75.21;96976.63;1794452;78;21158;-81
2021/03/25 07:20:33;;;;;;;45.70;30.15;;;;;;;5.01;74.91;96975.27;1787040;78;21105;-81
2021/03/25 07:23:12;;;;;;;51.95;35.00;;;;;;;5.06;74.62;96980.38;1793535;78;21229;-81
2021/03/25 07:25:46;;;;;;;41.02;27.50;;;;;;;5.12;74.78;96981.13;1784917;78;21122;-81
2021/03/25 07:28:18;;;;;;;42.50;28.60;;;;;;;5.16;73.87;96983.43;1791860;78;21066;-81
2021/03/25 07:30:52;;;;;;;47.40;33.40;;;;;;;5.12;72.91;96984.17;1792623;78;21067;-81
2021/03/25 07:33:22;;;;;;;47.93;32.35;;;;;;;5.15;73.01;96985.19;1798580;78;21217;-81
2021/03/25 07:36:13;;;;;;;51.40;33.08;;;;;;;5.19;73.12;96990.41;1783587;80;21103;-81
2021/03/25 07:38:40;;;;;;;44.03;29.95;;;;;;;5.20;73.29;96988.17;1761706;78;21228;-81
2021/03/25 07:41:24;;;;;;;41.10;28.07;;;;;;;5.23;72.78;96996.14;1776313;80;21095;-81
2021/03/25 07:44:18;;;;;;;44.18;28.65;;;;;;;5.22;72.19;96994.04;1764242;80;21221;-81
2021/03/25 07:46:49;;;;;;;43.50;28.73;;;;;;;5.26;72.52;96992.00;1759924;80;21074;-81
2021/03/25 07:49:20;;;;;;;42.38;28.23;;;;;;;5.28;72.11;96989.63;1760937;79;21329;-81
2021/03/25 07:51:57;;;;;;;41.13;27.32;;;;;;;5.32;71.41;96984.54;1773301;80;21133;-81
2021/03/25 07:54:37;;;;;;;40.10;27.50;;;;;;;5.41;71.42;96990.19;1769158;80;21316;-81
2021/03/25 07:57:14;;;;;;;37.05;24.27;;;;;;;5.48;71.07;96984.01;1765527;80;21228;-82
2021/03/25 07:59:52;;;;;;;36.48;26.30;;;;;;;5.53;71.05;96989.59;1774507;79;21081;-82
2021/03/25 08:02:33;;;;;;;41.98;26.35;;;;;;;5.57;71.00;96990.13;1780908;80;21252;-82
2021/03/25 08:05:28;;;;;;;42.62;27.00;;;;;;;5.62;70.31;96986.66;1763612;80;21256;-82
2021/03/25 08:07:56;;;;;;;;;;;;;;;5.68;69.55;96990.78;1763213;80;21087;-82
2021/03/25 08:10:40;;;;;;;41.08;27.55;;;;;;;5.71;70.15;96993.11;1759455;80;20158;-82
2021/03/25 08:13:22;;;;;;;40.35;27.17;;;;;;;5.77;70.08;96995.61;1765413;80;21329;-83
2021/03/25 08:15:55;;;;;;;47.80;30.50;;;;;;;5.80;70.27;96996.63;1338068;80;10000498;-82
2021/03/25 08:18:40;;;;;;;47.40;31.97;;;;;;;5.83;70.46;96998.92;1644950;86;21217;-82
2021/03/25 08:21:40;;;;;;;48.50;30.25;;;;;;;5.86;70.10;97001.25;1668802;86;21342;-82
2021/03/25 08:24:35;;;;;;;49.15;32.98;;;;;;;5.89;69.98;97006.61;1656145;84;21149;-83
2021/03/25 08:27:38;;;;;;;45.43;29.32;;;;;;;5.97;70.24;97006.75;1667873;85;21132;-81
2021/03/25 08:30:22;;;;;;;47.40;30.50;;;;;;;6.02;69.99;97000.73;1668746;86;21158;-82
2021/03/25 08:33:37;;;;;;;52.10;34.38;;;;;;;6.13;69.88;97000.55;1800316;78;22993;-82
2021/03/25 08:36:56;;;;;;;49.77;34.23;;;;;;;6.14;69.64;96999.59;1799441;78;21093;-82
2021/03/25 08:39:49;;;;;;;46.73;31.62;;;;;;;6.27;70.08;97000.11;1801537;78;21325;-81
2021/03/25 08:42:35;;;;;;;51.90;36.53;;;;;;;6.36;69.74;96996.38;1803764;78;21096;-81
2021/03/25 08:45:24;;;;;;;47.73;31.27;;;;;;;6.43;69.46;96998.23;1799518;78;21331;-81
2021/03/25 08:48:05;;;;;;;45.48;29.07;;;;;;;6.53;69.77;97001.61;1806344;78;21288;-82
2021/03/25 08:50:54;;;;;;;42.62;30.10;;;;;;;6.61;69.25;96993.14;1828975;78;21209;-81
2021/03/25 08:53:42;;;;;;;37.93;27.07;;;;;;;6.65;68.95;96994.48;1814826;78;21342;-81
2021/03/25 08:56:34;;;;;;;48.90;32.83;;;;;;;6.69;68.46;96995.03;1807458;78;21114;-81
2021/03/25 08:59:03;;;;;;;46.80;32.70;;;;;;;6.71;68.57;96993.13;1752193;81;21145;-81
2021/03/25 09:01:55;;;;;;;40.83;27.32;;;;;;;6.72;68.25;96988.29;1766150;79;21260;-81
2021/03/25 09:04:21;;;;;;;40.08;29.02;;;;;;;6.73;67.62;96993.31;1753074;81;21090;-81
2021/03/25 09:06:49;;;;;;;37.85;25.57;;;;;;;6.77;68.38;96990.77;1754049;81;21339;-81
2021/03/25 09:09:34;;;;;;;45.38;29.57;;;;;;;6.82;67.59;96987.75;1776787;81;21268;-81
2021/03/25 09:12:01;;;;;;;43.17;30.45;;;;;;;6.82;68.08;96986.45;1750381;81;21157;-81
2021/03/25 09:14:27;;;;;;;45.20;31.77;;;;;;;6.87;68.15;96985.56;1727757;81;21120;-81
2021/03/25 09:17:02;;;;;;;42.00;28.90;;;;;;;6.95;68.53;96992.59;1753834;81;21097;-82
2021/03/25 09:19:33;;;;;;;44.75;33.05;;;;;;;6.99;68.09;96990.85;1752647;81;21129;-82
2021/03/25 09:21:59;;;;;;;51.00;32.63;;;;;;;7.06;68.05;96990.63;1764467;81;21327;-82
2021/03/25 09:24:25;;;;;;;53.15;35.43;;;;;;;7.13;67.87;96989.08;1767898;81;21301;-82
2021/03/25 09:27:02;;;;;;;54.83;36.68;;;;;;;7.25;67.64;96986.30;1758740;81;21194;-82
2021/03/25 09:29:32;;;;;;;45.70;31.00;;;;;;;7.31;67.63;96990.87;1768083;81;21324;-82
2021/03/25 09:32:06;;;;;;;51.88;34.43;;;;;;;7.35;67.33;96986.58;1751676;81;21106;-82
2021/03/25 09:34:50;;;;;;;43.60;29.77;;;;;;;7.42;67.06;96986.79;1773503;80;21224;-82
2021/03/25 09:37:23;;;;;;;47.67;32.33;;;;;;;7.51;67.49;96987.21;1746161;81;21141;-81
2021/03/25 09:40:14;;;;;;;51.90;32.85;;;;;;;7.56;67.05;96991.45;1816790;78;21101;-81
2021/03/25 09:42:40;;;;;;;49.83;31.57;;;;;;;7.57;66.61;96985.31;1799536;79;21094;-81
2021/03/25 09:45:32;;;;;;;46.35;30.02;;;;;;;7.61;66.89;96981.47;1788360;79;21259;-81
2021/03/25 09:48:00;;;;;;;45.98;29.32;;;;;;;7.61;64.62;96989.22;1800118;79;21117;-81
2021/03/25 09:50:27;;;;;;;44.38;28.10;;;;;;;7.61;64.91;96985.83;1769813;79;21103;-81
2021/03/25 09:53:16;;;;;;;40.75;26.15;;;;;;;7.59;63.58;96984.69;1819342;78;21102;-81
2021/03/25 09:56:04;;;;;;;37.05;25.05;;;;;;;7.45;62.07;96986.48;1806080;78;21193;-81
2021/03/25 09:58:46;;;;;;;41.20;26.20;;;;;;;7.43;64.30;96988.41;1797611;78;21106;-81
2021/03/25 10:01:40;;;;;;;45.43;30.88;;;;;;;7.51;64.06;96986.73;1796244;79;21102;-81
2021/03/25 10:04:34;;;;;;;43.02;30.40;;;;;;;7.55;64.61;96983.36;1794081;79;21401;-81
2021/03/25 10:07:15;;;;;;;43.55;28.83;;;;;;;7.57;65.08;96982.73;1808584;79;21427;-83
2021/03/25 10:09:57;;;;;;;40.45;26.05;;;;;;;7.60;64.09;96984.20;1743442;80;21365;-81
2021/03/25 10:12:54;;;;;;;41.23;27.35;;;;;;;7.67;64.35;96987.84;1780878;80;21130;-81
2021/03/25 10:15:41;;;;;;;42.10;29.32;;;;;;;7.71;64.25;96982.21;1813118;78;21419;-81
2021/03/25 10:18:14;;;;;;;43.65;28.27;;;;;;;7.70;62.30;96981.88;1793719;78;21094;-81
2021/03/25 10:21:02;;;;;;;28.60;18.35;;;;;;;7.64;63.13;96975.99;1780522;78;21356;-81
2021/03/25 10:23:56;;;;;;;47.62;32.08;;;;;;;7.65;61.24;96978.94;1793425;78;21237;-81
2021/03/25 10:26:45;;;;;;;40.15;28.23;;;;;;;7.55;62.39;96978.19;1795012;78;21210;-81
2021/03/25 10:29:19;;;;;;;42.25;29.25;;;;;;;7.57;63.28;96972.39;1765575;79;21114;-81
2021/03/25 10:31:54;;;;;;;47.93;31.70;;;;;;;7.64;62.82;96979.88;1798089;78;21134;-81
2021/03/25 10:34:31;;;;;;;51.58;33.67;;;;;;;7.68;63.90;96979.12;1772772;79;21183;-81
2021/03/25 10:37:28;;;;;;;47.40;30.32;;;;;;;7.74;64.06;96982.39;1802436;79;21458;-81
2021/03/25 10:40:30;;;;;;;49.23;32.17;;;;;;;7.78;63.27;96979.83;1813969;79;21101;-81
2021/03/25 10:43:02;;;;;;;48.87;34.03;;;;;;;7.78;63.16;96978.53;1785697;79;21247;-81
2021/03/25 10:45:58;;;;;;;49.00;31.30;;;;;;;7.83;63.40;96976.34;1786582;79;21089;-82
2021/03/25 10:48:41;;;;;;;48.65;33.28;;;;;;;7.89;63.03;96975.72;1813633;78;21093;-82
2021/03/25 10:51:18;;;;;;;43.35;26.93;;;;;;;7.98;63.70;96968.36;1814505;79;21105;-82
2021/03/25 10:53:53;;;;;;;51.05;32.48;;;;;;;8.05;63.09;96968.08;1800567;78;21079;-82
2021/03/25 10:56:33;;;;;;;44.25;30.88;;;;;;;8.09;63.08;96965.98;1803014;79;21114;-80
2021/03/25 10:59:16;;;;;;;45.20;32.08;;;;;;;8.14;62.39;96958.60;1804067;79;21656;-81
2021/03/25 11:01:57;;;;;;;43.40;30.43;;;;;;;8.32;62.64;96960.66;1803655;78;21130;-81
2021/03/25 11:04:32;;;;;;;45.52;29.42;;;;;;;8.42;61.96;96952.30;1804766;79;21106;-81
2021/03/25 11:07:18;;;;;;;45.73;29.87;;;;;;;8.45;60.84;96947.78;1803177;79;21110;-81
2021/03/25 11:10:01;;;;;;;44.30;29.70;;;;;;;8.53;61.99;96950.42;1813093;78;21082;-80
2021/03/25 11:12:30;;;;;;;38.78;27.73;;;;;;;8.65;61.57;96950.00;1814387;79;21105;-81
2021/03/25 11:15:03;;;;;;;47.23;31.50;;;;;;;8.69;61.30;96949.20;1800476;78;21096;-80
2021/03/25 11:17:36;;;;;;;52.30;34.23;;;;;;;8.77;60.72;96946.63;1805977;79;21101;-80
2021/03/25 11:20:06;;;;;;;44.80;31.07;;;;;;;8.92;59.50;96941.17;1815455;78;21113;-80
2021/03/25 11:22:33;;;;;;;44.20;31.82;;;;;;;8.94;60.99;96939.72;1796084;79;21089;-81
2021/03/25 11:25:01;;;;;;;41.13;27.70;;;;;;;8.99;61.13;96933.11;1816914;78;21225;-80
2021/03/25 11:27:28;;;;;;;48.60;33.92;;;;;;;9.01;59.38;96937.65;1807203;78;21236;-80
2021/03/25 11:30:38;;;;;;;49.35;32.95;;;;;;;9.10;59.86;96935.06;1803343;79;21054;-80
2021/03/25 11:33:31;;;;;;;47.85;31.55;;;;;;;9.19;58.37;96931.04;1797740;79;21103;-80
2021/03/25 11:35:59;;;;;;;44.55;29.07;;;;;;;9.29;59.97;96928.31;1795918;79;21098;-82
2021/03/25 11:38:41;;;;;;;42.43;29.35;;;;;;;9.44;59.61;96928.01;1797521;79;21138;-81
2021/03/25 11:41:18;;;;;;;46.80;30.62;;;;;;;9.54;59.91;96923.94;1794130;78;21224;-81
2021/03/25 11:43:58;;;;;;;43.90;30.40;;;;;;;9.53;58.78;96925.73;1796233;79;21248;-81
2021/03/25 11:46:40;;;;;;;40.00;28.23;;;;;;;9.42;58.29;96927.33;1788247;80;21078;-81
2021/03/25 11:49:14;;;;;;;41.20;28.95;;;;;;;9.41;58.39;96923.61;1797456;78;21447;-81
2021/03/25 11:51:47;;;;;;;43.23;29.65;;;;;;;9.35;57.71;96919.88;1802507;79;21125;-81
2021/03/25 11:54:27;;;;;;;;;;;;;;;9.44;59.27;96915.52;1767865;80;21420;-81
2021/03/25 11:56:57;;;;;;;44.33;29.82;;;;;;;9.58;59.67;96911.77;1737353;81;20365;-82
2021/03/25 11:59:30;;;;;;;46.20;29.95;;;;;;;9.73;59.85;96913.72;1739078;81;21087;-83
2021/03/25 12:02:22;;;;;;;40.92;27.80;;;;;;;9.83;58.95;96911.78;1808017;79;21073;-85
2021/03/25 12:04:49;;;;;;;45.80;30.30;;;;;;;9.89;58.37;96907.22;1734217;80;21086;-82
2021/03/25 12:07:21;;;;;;;47.90;30.85;;;;;;;9.93;58.59;96903.34;1744493;81;21130;-82
2021/03/25 12:10:14;;;;;;;44.53;31.42;;;;;;;9.90;56.42;96899.75;1737633;81;21122;-82
2021/03/25 12:12:44;;;;;;;39.05;24.82;;;;;;;9.85;56.89;96895.55;1803108;78;21122;-82
2021/03/25 12:15:12;;;;;;;47.85;33.70;;;;;;;9.79;57.05;96893.13;1809746;79;21130;-82
2021/03/25 12:17:43;;;;;;;42.03;31.23;;;;;;;9.75;57.36;96897.01;1733830;80;21082;-82
2021/03/25 12:20:14;;;;;;;46.20;29.75;;;;;;;9.79;57.88;96885.34;1751359;81;21144;-82